Time;durP1;ratioP1;P1;durP2;ratioP2;P2;SDS_P1;SDS_P2;PMS_P1;PMS_P2;Temp;Humidity;BMP_temperature;BMP_pressure;BME280_temperature;BME280_humidity;BME280_pressure;Samples;Min_cycle;Max_cycle;Signal;HPM_P1;HPM_P2
2022/03/23 00:01:11;;;;;;;25.50;16.00;;;9.70;84.60;;;;;;5088940;28;20032;-58
2022/03/23 00:03:37;;;;;;;25.25;15.65;;;9.70;85.50;;;;;;5092655;28;20024;-58
2022/03/23 00:06:04;;;;;;;29.67;15.98;;;9.50;84.70;;;;;;5092614;28;20030;-58
2022/03/23 00:08:29;;;;;;;25.58;15.82;;;9.40;85.70;;;;;;5092134;28;20050;-58
2022/03/23 00:10:55;;;;;;;25.30;16.70;;;9.30;86.00;;;;;;5092854;28;20024;-58
2022/03/23 00:13:20;;;;;;;26.90;16.75;;;9.30;85.20;;;;;;5092021;28;20118;-58
2022/03/23 00:15:47;;;;;;;24.05;15.30;;;9.20;85.90;;;;;;5092242;28;20059;-58
2022/03/23 00:18:12;;;;;;;29.38;16.67;;;9.20;85.50;;;;;;5092178;28;20028;-57
2022/03/23 00:20:41;;;;;;;24.58;16.42;;;9.00;87.00;;;;;;5092536;28;20115;-57
2022/03/23 00:23:10;;;;;;;25.25;16.02;;;9.10;87.30;;;;;;5091936;28;20023;-57
2022/03/23 00:25:37;;;;;;;28.10;15.90;;;9.00;87.70;;;;;;5090908;28;20082;-57
2022/03/23 00:28:03;;;;;;;29.85;16.50;;;9.10;87.80;;;;;;5091388;28;20032;-58
2022/03/23 00:30:30;;;;;;;25.85;15.32;;;9.10;87.90;;;;;;5092024;28;20035;-58
2022/03/23 00:32:55;;;;;;;23.65;15.68;;;9.10;87.40;;;;;;5092518;28;20385;-58
2022/03/23 00:35:22;;;;;;;31.75;17.48;;;9.20;86.60;;;;;;5091077;28;20031;-58
2022/03/23 00:37:50;;;;;;;26.92;17.00;;;9.20;85.60;;;;;;5091810;28;20346;-58
2022/03/23 00:40:15;;;;;;;26.05;16.52;;;9.30;85.20;;;;;;5092779;28;20023;-58
2022/03/23 00:42:41;;;;;;;30.23;17.30;;;9.40;85.10;;;;;;5091918;28;20082;-58
2022/03/23 00:45:07;;;;;;;29.98;17.95;;;9.20;85.00;;;;;;5091667;28;20062;-58
2022/03/23 00:47:35;;;;;;;37.10;20.73;;;9.10;86.80;;;;;;5091980;28;20024;-58
2022/03/23 00:50:01;;;;;;;34.70;21.45;;;9.10;88.10;;;;;;5091812;28;20042;-58
2022/03/23 00:52:27;;;;;;;35.78;20.20;;;9.30;87.30;;;;;;5091612;28;20111;-58
2022/03/23 00:54:53;;;;;;;36.78;20.70;;;9.20;87.10;;;;;;5091395;28;20145;-58
2022/03/23 00:57:18;;;;;;;33.42;20.30;;;9.10;87.30;;;;;;5092188;28;20025;-58
2022/03/23 00:59:44;;;;;;;32.70;18.60;;;9.20;87.40;;;;;;5093000;28;20103;-58
2022/03/23 01:02:10;;;;;;;33.63;18.58;;;9.00;87.70;;;;;;5092595;28;20024;-57
2022/03/23 01:04:36;;;;;;;32.15;18.58;;;8.90;88.30;;;;;;5091340;28;20078;-57
2022/03/23 01:07:02;;;;;;;32.90;18.17;;;8.80;87.90;;;;;;5091551;28;20412;-57
2022/03/23 01:09:28;;;;;;;32.92;18.58;;;8.80;87.40;;;;;;5091731;28;20432;-57
2022/03/23 01:11:54;;;;;;;30.92;19.35;;;9.00;87.50;;;;;;5092375;28;20020;-58
2022/03/23 01:14:22;;;;;;;31.98;18.60;;;9.10;87.80;;;;;;5092612;28;20035;-58
2022/03/23 01:16:48;;;;;;;33.67;19.85;;;9.00;89.00;;;;;;5091989;28;20042;-58
2022/03/23 01:19:14;;;;;;;39.88;20.85;;;8.90;88.70;;;;;;5091337;28;20030;-58
2022/03/23 01:21:40;;;;;;;31.48;19.98;;;8.90;89.20;;;;;;5090692;28;20028;-58
2022/03/23 01:24:06;;;;;;;37.20;19.63;;;8.90;88.60;;;;;;5089772;28;20028;-58
2022/03/23 01:26:32;;;;;;;38.58;19.20;;;8.90;88.40;;;;;;5091185;28;20133;-58
2022/03/23 01:28:58;;;;;;;36.30;20.65;;;8.60;90.00;;;;;;5091139;28;20028;-58
2022/03/23 01:31:24;;;;;;;33.63;20.70;;;8.40;91.20;;;;;;5090930;28;20028;-58
2022/03/23 01:33:50;;;;;;;35.42;19.73;;;8.30;91.40;;;;;;5091852;28;20028;-58
2022/03/23 01:36:16;;;;;;;34.45;20.75;;;8.20;91.30;;;;;;5091013;28;20055;-58
2022/03/23 01:38:41;;;;;;;35.03;21.88;;;8.20;91.30;;;;;;5090327;28;20116;-58
2022/03/23 01:41:07;;;;;;;37.92;21.75;;;8.20;91.60;;;;;;5091185;28;20020;-58
2022/03/23 01:43:33;;;;;;;31.95;20.40;;;8.10;92.00;;;;;;5091112;28;20031;-58
2022/03/23 01:46:00;;;;;;;38.28;20.55;;;8.00;92.40;;;;;;5091410;28;20063;-58
2022/03/23 01:48:25;;;;;;;42.25;22.40;;;7.90;92.40;;;;;;5089707;28;20427;-58
2022/03/23 01:50:51;;;;;;;32.92;20.00;;;7.90;92.30;;;;;;5090334;28;20035;-58
2022/03/23 01:53:17;;;;;;;43.85;22.45;;;7.90;92.40;;;;;;5090568;28;20020;-58
2022/03/23 01:55:43;;;;;;;39.60;21.63;;;7.90;92.50;;;;;;5090699;28;20024;-58
2022/03/23 01:58:10;;;;;;;38.13;22.70;;;7.80;92.60;;;;;;5090620;28;20556;-58
2022/03/23 02:00:36;;;;;;;39.13;22.90;;;7.80;92.80;;;;;;5090634;28;20047;-58
2022/03/23 02:03:01;;;;;;;45.58;22.60;;;7.80;93.10;;;;;;5089476;28;20024;-58
2022/03/23 02:05:27;;;;;;;45.58;24.50;;;7.90;92.80;;;;;;5090751;28;20046;-58
2022/03/23 02:07:56;;;;;;;35.53;23.20;;;7.90;92.90;;;;;;5090466;28;20097;-58
2022/03/23 02:10:22;;;;;;;36.42;22.83;;;7.80;93.20;;;;;;5090458;28;20464;-58
2022/03/23 02:12:47;;;;;;;37.45;22.60;;;7.80;93.30;;;;;;5090113;28;20024;-58
2022/03/23 02:15:16;;;;;;;38.08;21.90;;;7.80;93.50;;;;;;5090549;28;20021;-58
2022/03/23 02:17:42;;;;;;;40.65;23.02;;;7.90;93.70;;;;;;5090828;28;20028;-58
2022/03/23 02:20:09;;;;;;;43.10;22.50;;;7.90;93.80;;;;;;5090753;28;20031;-58
2022/03/23 02:22:35;;;;;;;40.22;22.40;;;8.00;94.00;;;;;;5091560;28;20362;-58
2022/03/23 02:25:01;;;;;;;38.38;23.30;;;8.00;94.40;;;;;;5089998;28;20032;-59
2022/03/23 02:27:28;;;;;;;37.83;22.33;;;7.90;94.60;;;;;;5090183;28;20397;-58
2022/03/23 02:29:53;;;;;;;37.08;23.13;;;8.00;94.90;;;;;;5090009;28;20042;-59
2022/03/23 02:32:19;;;;;;;37.10;21.70;;;8.00;94.70;;;;;;5088637;28;20017;-58
2022/03/23 02:34:45;;;;;;;40.60;21.83;;;7.90;95.20;;;;;;5089921;28;20031;-58
2022/03/23 02:37:11;;;;;;;37.53;21.92;;;8.00;95.50;;;;;;5090198;28;20024;-58
2022/03/23 02:39:37;;;;;;;39.08;22.38;;;8.00;95.10;;;;;;5090664;28;20608;-58
2022/03/23 02:42:03;;;;;;;36.15;22.08;;;8.10;94.70;;;;;;5089865;28;20099;-58
2022/03/23 02:44:29;;;;;;;38.00;22.92;;;8.10;94.70;;;;;;5089994;28;20389;-58
2022/03/23 02:46:55;;;;;;;35.35;21.52;;;8.00;95.50;;;;;;5090169;28;20136;-58
2022/03/23 02:49:22;;;;;;;43.28;22.42;;;7.90;95.30;;;;;;5089611;28;20048;-58
2022/03/23 02:51:48;;;;;;;41.70;22.95;;;7.80;95.30;;;;;;5094482;28;20024;-58
2022/03/23 03:03:32;;;;;;;35.67;20.65;;;7.60;96.00;;;;;;5094837;28;20022;-58
2022/03/23 03:05:57;;;;;;;37.28;21.45;;;7.60;96.10;;;;;;5094738;28;20085;-58
2022/03/23 03:11:07;;;;;;;40.80;22.27;;;7.50;96.90;;;;;;5094750;28;20050;-58
2022/03/23 03:13:34;;;;;;;38.65;21.95;;;7.30;98.20;;;;;;5094600;28;20016;-58
2022/03/23 03:16:02;;;;;;;34.30;21.25;;;7.40;98.40;;;;;;5093472;28;20020;-58
2022/03/23 03:18:32;;;;;;;37.97;22.23;;;7.40;98.40;;;;;;5093492;28;20419;-58
2022/03/23 03:20:58;;;;;;;39.58;21.65;;;7.40;98.30;;;;;;5094322;28;20374;-58
2022/03/23 03:23:24;;;;;;;38.30;22.13;;;7.50;97.90;;;;;;5093717;28;20024;-58
2022/03/23 03:25:49;;;;;;;36.20;23.55;;;7.60;97.60;;;;;;5093241;28;20042;-58
2022/03/23 03:28:15;;;;;;;41.42;22.83;;;7.70;97.30;;;;;;5093870;28;20047;-58
2022/03/23 03:30:41;;;;;;;36.75;23.08;;;7.70;97.40;;;;;;5093331;28;20445;-58
2022/03/23 03:33:06;;;;;;;37.28;22.13;;;7.70;97.60;;;;;;5093440;28;20077;-58
2022/03/23 03:35:32;;;;;;;41.80;21.92;;;7.80;97.00;;;;;;5093342;28;20024;-58
2022/03/23 03:37:58;;;;;;;42.70;23.23;;;8.00;96.50;;;;;;5093552;28;20100;-58
2022/03/23 03:40:24;;;;;;;39.22;21.63;;;8.10;96.00;;;;;;5092952;28;20016;-58
2022/03/23 03:42:50;;;;;;;43.55;24.35;;;8.30;94.80;;;;;;5094075;28;20020;-58
2022/03/23 03:45:15;;;;;;;40.88;23.60;;;8.40;94.50;;;;;;5092111;28;20118;-58
2022/03/23 03:47:41;;;;;;;40.20;23.48;;;8.60;94.30;;;;;;5093396;28;20035;-58
2022/03/23 03:50:07;;;;;;;45.08;23.85;;;8.60;94.20;;;;;;5092522;28;20024;-58
2022/03/23 03:52:33;;;;;;;42.58;23.08;;;8.50;94.30;;;;;;5093258;28;20496;-58
2022/03/23 03:54:58;;;;;;;39.20;23.30;;;8.60;94.30;;;;;;5092756;28;20312;-58
2022/03/23 03:57:27;;;;;;;38.83;23.95;;;8.60;94.50;;;;;;5092999;28;20035;-58
2022/03/23 03:59:52;;;;;;;38.92;22.42;;;8.40;95.10;;;;;;5092749;28;20043;-58
2022/03/23 04:02:19;;;;;;;36.13;22.55;;;8.10;96.00;;;;;;5091998;28;20144;-58
2022/03/23 04:04:44;;;;;;;39.88;23.65;;;7.70;97.30;;;;;;5092654;28;20027;-57
2022/03/23 04:07:10;;;;;;;47.53;25.75;;;7.30;98.50;;;;;;5092706;28;20024;-57
2022/03/23 04:09:36;;;;;;;44.35;26.05;;;7.20;98.80;;;;;;5091324;28;20397;-57
2022/03/23 04:12:03;;;;;;;42.40;25.60;;;7.20;99.30;;;;;;5092738;28;20113;-58
2022/03/23 04:14:28;;;;;;;48.70;26.45;;;7.20;99.60;;;;;;5093054;28;20350;-58
2022/03/23 04:16:55;;;;;;;44.70;25.60;;;7.20;99.90;;;;;;5093407;28;20032;-57
2022/03/23 04:19:21;;;;;;;43.10;25.05;;;7.00;99.90;;;;;;5092895;28;20074;-57
2022/03/23 04:21:46;;;;;;;42.35;24.98;;;6.60;99.90;;;;;;5092975;28;20035;-57
2022/03/23 04:24:12;;;;;;;44.33;25.45;;;6.50;99.90;;;;;;5092741;28;20397;-57
2022/03/23 04:26:38;;;;;;;39.92;24.52;;;6.50;99.90;;;;;;5092596;28;20075;-58
2022/03/23 04:29:03;;;;;;;41.00;25.23;;;6.50;99.90;;;;;;5092530;28;20541;-58
2022/03/23 04:31:29;;;;;;;44.50;25.17;;;6.40;99.90;;;;;;5092039;28;20028;-58
2022/03/23 04:33:54;;;;;;;43.33;25.38;;;6.30;99.90;;;;;;5091958;28;20401;-58
2022/03/23 04:36:20;;;;;;;48.25;25.30;;;6.30;99.90;;;;;;5091593;28;20028;-58
2022/03/23 04:38:46;;;;;;;44.47;24.83;;;6.30;99.90;;;;;;5092482;28;20054;-58
2022/03/23 04:41:12;;;;;;;38.88;23.67;;;6.10;99.90;;;;;;5092244;28;20028;-57
2022/03/23 04:43:38;;;;;;;42.67;25.10;;;5.90;99.90;;;;;;5092154;28;20042;-57
2022/03/23 04:46:05;;;;;;;45.33;24.85;;;5.90;99.90;;;;;;5092184;28;20507;-57
2022/03/23 04:48:31;;;;;;;45.75;26.30;;;5.90;99.90;;;;;;5091735;28;20170;-57
2022/03/23 04:50:57;;;;;;;46.10;25.83;;;6.00;99.90;;;;;;5091974;28;20024;-57
2022/03/23 04:53:23;;;;;;;41.25;25.50;;;6.00;99.90;;;;;;5091877;28;20024;-58
2022/03/23 04:55:49;;;;;;;42.40;25.23;;;6.10;99.90;;;;;;5092946;28;20027;-58
2022/03/23 04:58:15;;;;;;;43.80;25.27;;;6.20;99.90;;;;;;5090824;28;20024;-58
2022/03/23 05:00:41;;;;;;;43.67;25.63;;;6.10;99.90;;;;;;5091560;28;20232;-58
2022/03/23 05:03:07;;;;;;;42.75;24.73;;;6.10;99.90;;;;;;5091925;28;20024;-58
2022/03/23 05:05:33;;;;;;;41.15;23.95;;;6.20;99.90;;;;;;5092107;28;20477;-58
2022/03/23 05:07:59;;;;;;;48.15;25.67;;;6.30;99.90;;;;;;5091251;28;20067;-58
2022/03/23 05:10:24;;;;;;;42.75;25.60;;;6.50;99.90;;;;;;5091697;28;20028;-58
2022/03/23 05:12:50;;;;;;;49.03;26.15;;;6.60;99.90;;;;;;5090834;28;20067;-58
2022/03/23 05:15:16;;;;;;;42.83;26.42;;;6.30;99.90;;;;;;5091393;28;20055;-58
2022/03/23 05:17:44;;;;;;;42.20;24.65;;;6.10;99.90;;;;;;5091413;28;20051;-58
2022/03/23 05:20:11;;;;;;;40.45;23.38;;;5.90;99.90;;;;;;5091101;28;20031;-58
2022/03/23 05:22:39;;;;;;;42.50;24.08;;;5.70;99.90;;;;;;5091498;28;20028;-58
2022/03/23 05:25:06;;;;;;;43.30;24.52;;;5.30;99.90;;;;;;5092480;28;20024;-58
2022/03/23 05:27:36;;;;;;;44.95;24.58;;;5.20;99.90;;;;;;5093093;28;20031;-58
2022/03/23 05:30:05;;;;;;;42.30;25.15;;;5.30;99.90;;;;;;5091994;28;20081;-58
2022/03/23 05:32:31;;;;;;;42.90;25.13;;;5.30;99.90;;;;;;5090985;28;20024;-58
2022/03/23 05:34:56;;;;;;;47.40;25.98;;;5.30;99.90;;;;;;5092011;28;20028;-58
2022/03/23 05:37:22;;;;;;;43.55;24.58;;;5.20;99.90;;;;;;5092241;28;20020;-58
2022/03/23 05:39:47;;;;;;;49.75;26.75;;;5.20;99.90;;;;;;5090782;28;20060;-58
2022/03/23 05:42:13;;;;;;;46.85;27.05;;;5.10;99.90;;;;;;5091291;28;20024;-58
2022/03/23 05:44:39;;;;;;;47.47;26.95;;;5.10;99.90;;;;;;5091109;28;20031;-58
2022/03/23 05:47:05;;;;;;;54.63;26.92;;;5.20;99.90;;;;;;5091090;28;20032;-57
2022/03/23 05:49:31;;;;;;;45.58;26.27;;;5.20;99.90;;;;;;5091199;28;20389;-57
2022/03/23 05:51:57;;;;;;;43.72;26.45;;;5.40;99.90;;;;;;5091355;28;20082;-58
2022/03/23 05:54:23;;;;;;;41.72;26.50;;;5.50;99.90;;;;;;5092148;28;20413;-58
2022/03/23 05:56:50;;;;;;;50.00;25.83;;;5.40;99.90;;;;;;5092683;28;20668;-58
2022/03/23 05:59:16;;;;;;;46.45;26.77;;;5.30;99.90;;;;;;5091669;28;20035;-58
2022/03/23 06:01:41;;;;;;;46.67;26.70;;;5.40;99.90;;;;;;5090695;28;20036;-58
2022/03/23 06:04:08;;;;;;;49.70;26.65;;;5.50;99.90;;;;;;5090676;28;20028;-58
2022/03/23 06:06:34;;;;;;;46.35;26.30;;;5.60;99.90;;;;;;5091321;28;20077;-58
2022/03/23 06:08:59;;;;;;;44.88;25.42;;;5.80;99.90;;;;;;5091563;28;20048;-58
2022/03/23 06:11:25;;;;;;;51.08;28.25;;;6.00;99.90;;;;;;5090677;28;20028;-58
2022/03/23 06:13:50;;;;;;;48.00;29.90;;;6.00;99.90;;;;;;5090658;28;20028;-58
2022/03/23 06:16:16;;;;;;;46.55;27.13;;;6.00;99.90;;;;;;5090643;28;20028;-57
2022/03/23 06:18:42;;;;;;;64.03;29.55;;;6.00;99.90;;;;;;5090894;28;20329;-58
2022/03/23 06:21:08;;;;;;;49.97;26.52;;;6.10;99.90;;;;;;5090775;28;20083;-58
2022/03/23 06:23:34;;;;;;;50.22;26.42;;;6.20;99.90;;;;;;5090399;28;20112;-58
2022/03/23 06:26:00;;;;;;;50.13;25.58;;;6.30;99.90;;;;;;5089902;28;20077;-58
2022/03/23 06:28:27;;;;;;;41.97;25.10;;;6.30;99.90;;;;;;5091341;28;20020;-58
2022/03/23 06:30:52;;;;;;;46.45;25.05;;;6.10;99.90;;;;;;5090903;28;20451;-58
2022/03/23 06:33:19;;;;;;;48.53;25.58;;;6.10;99.90;;;;;;5091312;28;20032;-58
2022/03/23 06:35:46;;;;;;;45.38;26.70;;;6.20;99.90;;;;;;5090454;28;20166;-58
2022/03/23 06:38:12;;;;;;;48.22;27.55;;;6.40;99.90;;;;;;5085518;28;20425;-58
2022/03/23 06:40:38;;;;;;;47.08;26.10;;;6.50;99.90;;;;;;5079274;28;20032;-58
2022/03/23 06:43:04;;;;;;;45.92;26.00;;;6.50;99.90;;;;;;5069739;28;20039;-58
2022/03/23 06:45:30;;;;;;;39.38;25.35;;;6.50;99.90;;;;;;5074357;28;20040;-58
2022/03/23 06:47:56;;;;;;;51.83;26.60;;;6.40;99.90;;;;;;5079354;28;20041;-58
2022/03/23 06:50:22;;;;;;;46.05;26.13;;;6.40;99.90;;;;;;5084494;28;20107;-58
2022/03/23 06:52:48;;;;;;;45.35;26.40;;;6.40;99.90;;;;;;5085473;28;20184;-58
2022/03/23 06:55:13;;;;;;;46.35;25.75;;;6.60;99.90;;;;;;5075031;28;20028;-57
2022/03/23 06:57:39;;;;;;;43.88;25.42;;;6.90;99.90;;;;;;5083219;28;20039;-58
2022/03/23 07:00:12;;;;;;;49.67;26.63;;;7.30;99.90;;;;;;5081203;28;20024;-58
2022/03/23 07:02:42;;;;;;;41.83;26.38;;;7.50;99.90;;;;;;5080121;28;20113;-58
2022/03/23 07:05:09;;;;;;;44.03;26.73;;;7.40;99.90;;;;;;5077827;28;20028;-57
2022/03/23 07:07:36;;;;;;;52.92;31.80;;;7.50;99.90;;;;;;5074031;28;20850;-57
2022/03/23 07:10:04;;;;;;;49.53;28.80;;;7.40;99.90;;;;;;5074582;28;20025;-57
2022/03/23 07:12:30;;;;;;;49.45;27.13;;;7.60;99.90;;;;;;5072166;28;20028;-57
2022/03/23 07:14:56;;;;;;;41.78;27.35;;;7.90;99.90;;;;;;5072141;28;20050;-57
2022/03/23 07:17:21;;;;;;;45.78;27.27;;;8.20;99.90;;;;;;5073864;28;20440;-57
2022/03/23 07:19:47;;;;;;;46.53;25.27;;;8.20;99.90;;;;;;5070150;28;20024;-57
2022/03/23 07:22:15;;;;;;;43.00;25.83;;;8.30;99.90;;;;;;5075524;28;20027;-58
2022/03/23 07:24:40;;;;;;;44.30;25.50;;;8.30;99.90;;;;;;5078227;28;20028;-58
2022/03/23 07:27:06;;;;;;;47.38;26.10;;;8.40;99.90;;;;;;5071915;28;20082;-57
2022/03/23 07:29:31;;;;;;;49.75;24.60;;;8.60;99.90;;;;;;5090393;28;20516;-58
2022/03/23 07:31:57;;;;;;;43.08;25.83;;;8.70;99.90;;;;;;5071897;28;20103;-58
2022/03/23 07:34:23;;;;;;;45.75;25.00;;;8.80;99.90;;;;;;5065759;28;20029;-58
2022/03/23 07:36:49;;;;;;;42.75;28.88;;;8.80;99.90;;;;;;5071586;28;20069;-58
2022/03/23 07:39:20;;;;;;;47.63;30.30;;;8.90;99.90;;;;;;5076090;28;20063;-58
2022/03/23 07:41:55;;;;;;;45.20;28.90;;;9.10;99.90;;;;;;5067789;28;20052;-58
2022/03/23 07:44:21;;;;;;;46.00;28.77;;;9.20;99.90;;;;;;5067214;28;20037;-58
2022/03/23 07:46:47;;;;;;;49.72;28.67;;;9.30;99.90;;;;;;5068856;28;20054;-58
2022/03/23 07:49:14;;;;;;;52.03;29.15;;;9.40;99.90;;;;;;5067678;28;20417;-58
2022/03/23 07:51:40;;;;;;;39.13;28.58;;;9.70;99.90;;;;;;5063057;28;20032;-58
2022/03/23 07:54:06;;;;;;;44.80;29.70;;;9.80;99.90;;;;;;5065283;28;20539;-58
2022/03/23 07:56:32;;;;;;;53.17;29.15;;;9.80;99.90;;;;;;5069379;28;20111;-59
2022/03/23 07:58:58;;;;;;;44.20;26.52;;;9.90;99.90;;;;;;5073813;28;20115;-59
2022/03/23 08:01:24;;;;;;;46.85;27.58;;;10.70;99.90;;;;;;5077562;28;20159;-59
2022/03/23 08:03:49;;;;;;;36.88;25.98;;;12.50;99.90;;;;;;5072370;28;20373;-59
2022/03/23 08:06:15;;;;;;;37.90;25.52;;;13.90;99.90;;;;;;5072695;28;20408;-59
2022/03/23 08:08:41;;;;;;;36.40;24.98;;;15.40;97.30;;;;;;5068779;28;20075;-59
2022/03/23 08:11:07;;;;;;;35.58;24.90;;;16.50;93.80;;;;;;5072492;28;20055;-59
2022/03/23 08:13:32;;;;;;;36.90;24.65;;;17.60;91.50;;;;;;5074501;28;20028;-60
2022/03/23 08:16:00;;;;;;;36.40;24.77;;;18.20;87.40;;;;;;5073173;28;20404;-60
2022/03/23 08:18:27;;;;;;;33.42;23.15;;;18.80;85.90;;;;;;5072281;28;20033;-60
2022/03/23 08:20:53;;;;;;;33.63;24.35;;;18.90;84.90;;;;;;5071521;28;20033;-60
2022/03/23 08:23:19;;;;;;;34.95;24.77;;;18.80;85.20;;;;;;5072254;28;20725;-60
2022/03/23 08:25:45;;;;;;;33.85;24.50;;;18.50;86.10;;;;;;5072315;28;20089;-60
2022/03/23 08:28:14;;;;;;;35.25;24.95;;;18.50;87.50;;;;;;5065984;28;20024;-60
2022/03/23 08:30:40;;;;;;;36.92;25.25;;;18.30;89.60;;;;;;5067029;28;20024;-60
2022/03/23 08:33:06;;;;;;;32.60;25.05;;;18.00;90.10;;;;;;5072422;28;20311;-60
2022/03/23 08:35:33;;;;;;;33.92;24.92;;;18.40;89.90;;;;;;5066146;28;20039;-60
2022/03/23 08:37:58;;;;;;;35.55;24.80;;;18.10;90.30;;;;;;5068763;28;20020;-60
2022/03/23 08:40:24;;;;;;;35.65;24.90;;;18.30;90.30;;;;;;5071019;28;20058;-60
2022/03/23 08:42:50;;;;;;;32.63;24.17;;;18.60;89.70;;;;;;5063622;28;20036;-60
2022/03/23 08:45:16;;;;;;;38.33;26.52;;;19.10;86.60;;;;;;5062120;28;20244;-60
2022/03/23 08:47:43;;;;;;;38.05;26.48;;;18.00;88.20;;;;;;5066603;28;20036;-60
2022/03/23 08:50:11;;;;;;;43.75;27.35;;;17.70;90.00;;;;;;5066742;28;20405;-59
2022/03/23 08:52:39;;;;;;;41.58;28.00;;;17.80;87.60;;;;;;5072677;28;20020;-59
2022/03/23 08:55:07;;;;;;;41.78;27.58;;;18.00;87.30;;;;;;5066618;28;20085;-59
2022/03/23 08:57:33;;;;;;;47.97;28.98;;;17.80;88.30;;;;;;5068211;28;20040;-59
2022/03/23 08:59:59;;;;;;;43.70;28.98;;;17.80;87.70;;;;;;5068431;28;20024;-60
2022/03/23 09:02:25;;;;;;;47.97;29.13;;;18.60;85.10;;;;;;5070158;28;20043;-60
2022/03/23 09:04:50;;;;;;;46.17;30.48;;;19.10;80.40;;;;;;5067992;28;20035;-60
2022/03/23 09:07:16;;;;;;;43.28;28.33;;;18.80;83.30;;;;;;5066035;28;20400;-60
2022/03/23 09:09:42;;;;;;;46.65;30.23;;;18.90;80.80;;;;;;5071439;28;20041;-59
2022/03/23 09:12:09;;;;;;;51.38;29.88;;;18.50;82.00;;;;;;5070785;28;20020;-59
2022/03/23 09:14:35;;;;;;;48.22;29.75;;;18.50;81.10;;;;;;5065082;28;20607;-61
2022/03/23 09:17:02;;;;;;;47.47;29.75;;;18.40;81.30;;;;;;5064765;28;20129;-60
2022/03/23 09:19:27;;;;;;;49.45;30.45;;;18.80;79.70;;;;;;5067624;28;20040;-60
2022/03/23 09:21:54;;;;;;;50.55;30.02;;;19.60;79.30;;;;;;5069215;28;20287;-60
2022/03/23 09:24:19;;;;;;;47.75;29.80;;;19.40;78.60;;;;;;5069167;28;20651;-60
2022/03/23 09:26:46;;;;;;;44.03;30.05;;;19.70;78.30;;;;;;5071231;28;20031;-60
2022/03/23 09:29:12;;;;;;;45.17;30.38;;;20.40;75.70;;;;;;5062902;28;20145;-60
2022/03/23 09:31:38;;;;;;;52.88;30.65;;;19.90;75.70;;;;;;5065631;28;20119;-60
2022/03/23 09:34:05;;;;;;;46.58;30.45;;;20.40;76.30;;;;;;5064724;28;21944;-60
2022/03/23 09:39:17;;;;;;;45.85;30.25;;;20.60;74.50;;;;;;5063972;28;20475;-60
2022/03/23 09:41:45;;;;;;;45.92;30.05;;;20.70;73.60;;;;;;5070574;28;20028;-60
2022/03/23 09:44:11;;;;;;;44.75;30.13;;;20.80;75.20;;;;;;5065364;28;20074;-60
2022/03/23 09:46:37;;;;;;;50.75;31.08;;;20.70;73.90;;;;;;5067210;28;20055;-60
2022/03/23 09:49:05;;;;;;;51.88;31.10;;;20.80;74.80;;;;;;5069180;28;20279;-60
2022/03/23 09:51:35;;;;;;;49.05;30.80;;;20.80;74.60;;;;;;5067401;28;20582;-60
2022/03/23 09:54:02;;;;;;;42.90;30.50;;;21.10;74.60;;;;;;5069062;28;20032;-60
2022/03/23 09:56:28;;;;;;;46.95;30.70;;;21.30;72.00;;;;;;5069002;28;20029;-60
2022/03/23 09:58:54;;;;;;;50.88;30.95;;;21.10;70.70;;;;;;5065923;28;20449;-60
2022/03/23 10:01:28;;;;;;;50.40;31.73;;;20.90;71.70;;;;;;5069085;28;20404;-61
2022/03/23 10:04:18;;;;;;;50.67;31.70;;;20.90;71.60;;;;;;5062431;28;20028;-60
2022/03/23 10:07:19;;;;;;;48.08;31.90;;;21.00;71.80;;;;;;5069250;28;20396;-61
2022/03/23 10:10:32;;;;;;;43.25;29.73;;;21.40;71.20;;;;;;5068330;28;20068;-60
2022/03/23 10:13:36;;;;;;;;;;;21.80;68.50;;;;;;5030689;28;20055;-60
2022/03/23 10:16:02;;;;;;;40.75;29.27;;;22.00;68.00;;;;;;5066879;28;20341;-60
2022/03/23 10:18:54;;;;;;;43.35;30.50;;;21.70;65.90;;;;;;5065741;28;20036;-59
2022/03/23 10:21:21;;;;;;;45.35;29.88;;;21.70;66.60;;;;;;5069493;28;20135;-59
2022/03/23 10:24:11;;;;;;;42.95;28.63;;;21.70;65.90;;;;;;5068190;28;20066;-59
2022/03/23 10:26:37;;;;;;;47.03;29.25;;;21.50;65.50;;;;;;5069936;28;20047;-59
2022/03/23 10:29:10;;;;;;;40.03;28.80;;;21.80;65.70;;;;;;5067678;28;20020;-59
2022/03/23 10:31:36;;;;;;;39.28;29.02;;;22.30;63.50;;;;;;5071339;28;20032;-59
2022/03/23 10:34:08;;;;;;;39.75;29.17;;;22.40;63.10;;;;;;5072812;28;20025;-60
2022/03/23 10:36:51;;;;;;;39.70;28.88;;;22.80;62.00;;;;;;5071203;28;20623;-59
2022/03/23 10:39:18;;;;;;;39.75;28.50;;;22.70;59.50;;;;;;5066054;28;20029;-59
2022/03/23 10:42:26;;;;;;;35.42;25.92;;;22.10;61.50;;;;;;5064001;28;20479;-59
2022/03/23 10:45:06;;;;;;;39.25;26.65;;;22.50;60.60;;;;;;5034920;28;20045;-60
2022/03/23 10:47:32;;;;;;;38.75;27.42;;;22.40;60.50;;;;;;5062647;28;20520;-61
2022/03/23 10:50:13;;;;;;;36.83;26.58;;;23.20;59.70;;;;;;5075673;28;20131;-60
2022/03/23 10:53:08;;;;;;;38.83;27.15;;;24.00;57.70;;;;;;5070337;28;20064;-60
2022/03/23 10:55:48;;;;;;;42.35;27.95;;;23.90;57.20;;;;;;5057942;28;20028;-60
2022/03/23 10:58:21;;;;;;;41.05;25.67;;;23.60;58.20;;;;;;5067846;28;20020;-60
2022/03/23 11:00:48;;;;;;;35.90;25.02;;;24.00;57.90;;;;;;5065809;28;20116;-61
2022/03/23 11:03:14;;;;;;;37.15;24.98;;;24.50;55.10;;;;;;5066590;28;20594;-60
2022/03/23 11:05:47;;;;;;;40.05;26.95;;;24.50;55.90;;;;;;5071254;28;20121;-60
2022/03/23 11:08:20;;;;;;;41.80;27.70;;;23.70;57.30;;;;;;5065227;28;20044;-60
2022/03/23 11:16:26;;;;;;;41.63;28.17;;;23.20;57.50;;;;;;5069759;28;20164;-60
2022/03/23 11:19:12;;;;;;;38.33;25.92;;;23.10;57.80;;;;;;5064741;28;20071;-61
2022/03/23 11:22:05;;;;;;;40.83;27.80;;;23.00;57.80;;;;;;5074423;28;20024;-60
2022/03/23 11:24:36;;;;;;;32.97;21.67;;;23.20;58.40;;;;;;5070261;28;20051;-60
2022/03/23 11:27:03;;;;;;;36.65;22.67;;;23.80;54.90;;;;;;5067893;28;20034;-60
2022/03/23 11:29:31;;;;;;;37.13;24.48;;;23.10;55.50;;;;;;5072103;28;20038;-60
2022/03/23 11:31:58;;;;;;;37.17;24.77;;;22.70;56.30;;;;;;5069686;28;20108;-61
2022/03/23 11:34:25;;;;;;;36.33;25.10;;;23.50;54.70;;;;;;5081950;28;20012;-60
2022/03/23 11:36:53;;;;;;;35.85;25.75;;;23.60;54.90;;;;;;5074455;28;20032;-60
2022/03/23 11:39:21;;;;;;;33.58;24.65;;;24.30;55.60;;;;;;5073530;28;20113;-60
2022/03/23 11:41:51;;;;;;;33.80;23.77;;;25.10;53.30;;;;;;5070468;28;20111;-60
2022/03/23 11:44:18;;;;;;;34.50;24.65;;;25.30;53.20;;;;;;5072931;28;20097;-60
2022/03/23 11:46:45;;;;;;;32.20;22.63;;;25.70;52.00;;;;;;5079342;28;20039;-60
2022/03/23 11:49:27;;;;;;;31.08;23.02;;;25.30;51.50;;;;;;5072171;28;20113;-61
2022/03/23 11:52:23;;;;;;;34.67;24.02;;;25.40;51.50;;;;;;5075000;28;20020;-60
2022/03/23 11:57:54;;;;;;;30.33;20.27;;;25.00;51.00;;;;;;5074679;28;20166;-60
2022/03/23 12:00:26;;;;;;;32.60;19.40;;;24.90;50.60;;;;;;5070422;28;20048;-60
2022/03/23 12:02:53;;;;;;;27.30;20.23;;;24.50;50.00;;;;;;5073285;28;20033;-60
2022/03/23 12:05:30;;;;;;;28.48;19.95;;;24.30;50.40;;;;;;5088832;28;20485;-60
2022/03/23 12:07:56;;;;;;;22.05;16.58;;;24.30;51.30;;;;;;5091149;28;20051;-60
2022/03/23 12:10:24;;;;;;;26.33;17.70;;;24.70;49.80;;;;;;5078413;28;20115;-60
2022/03/23 12:12:50;;;;;;;28.15;20.55;;;24.40;49.50;;;;;;5072382;28;20025;-61
2022/03/23 12:15:25;;;;;;;27.45;19.15;;;24.30;50.80;;;;;;5077899;28;20036;-60
2022/03/23 12:17:56;;;;;;;21.55;16.42;;;24.70;49.60;;;;;;5072664;28;20016;-60
2022/03/23 12:20:40;;;;;;;18.45;14.48;;;24.30;50.30;;;;;;5076046;28;20117;-60
2022/03/23 12:23:14;;;;;;;28.58;15.43;;;24.10;50.70;;;;;;5070977;28;20044;-60
2022/03/23 12:26:03;;;;;;;19.58;14.07;;;24.50;49.80;;;;;;5081107;28;20063;-60
2022/03/23 12:29:07;;;;;;;26.00;14.27;;;24.60;49.90;;;;;;5079463;28;20031;-59
2022/03/23 12:31:40;;;;;;;19.52;14.13;;;24.40;48.90;;;;;;5070746;28;20046;-59
2022/03/23 12:34:11;;;;;;;22.85;17.13;;;24.50;48.60;;;;;;5088303;28;20078;-59
2022/03/23 12:36:56;;;;;;;20.15;12.73;;;24.70;49.20;;;;;;5090265;28;20028;-59
2022/03/23 12:39:39;;;;;;;15.30;12.10;;;24.10;48.60;;;;;;5075063;28;20477;-59
2022/03/23 12:42:11;;;;;;;17.00;10.77;;;24.80;48.00;;;;;;5071640;28;20020;-59
2022/03/23 12:44:37;;;;;;;17.60;12.32;;;24.50;46.90;;;;;;5071390;28;20024;-59
2022/03/23 12:47:06;;;;;;;18.75;13.07;;;24.00;48.30;;;;;;5071443;28;20060;-59
2022/03/23 12:58:19;;;;;;;13.07;10.10;;;25.50;43.30;;;;;;5075971;28;20189;-59
2022/03/23 13:00:48;;;;;;;12.88;10.52;;;25.60;43.20;;;;;;5082461;28;20038;-59
2022/03/23 13:03:19;;;;;;;17.75;11.27;;;25.00;44.00;;;;;;5078204;28;20409;-59
2022/03/23 13:05:59;;;;;;;15.40;12.00;;;24.80;45.00;;;;;;5076789;28;20032;-59
2022/03/23 13:08:32;;;;;;;12.73;9.55;;;25.00;46.10;;;;;;5080941;28;20071;-61
2022/03/23 13:11:00;;;;;;;71.70;48.58;;;25.30;43.10;;;;;;5088737;28;20108;-60